createdAt,value
2023-05-14T04:15:23.774Z,864.00
2023-05-14T04:16:23.818Z,900.00
2023-05-14T04:17:23.871Z,940.00
2023-05-14T04:18:23.731Z,976.00
2023-05-14T04:19:23.725Z,1016.00
2023-05-14T04:20:23.859Z,1060.00
2023-05-14T04:21:23.734Z,1088.00
2023-05-14T04:22:23.681Z,1116.00
2023-05-14T04:23:23.667Z,1148.00
2023-05-14T04:24:23.653Z,1188.00
2023-05-14T04:25:23.655Z,1232.00
2023-05-14T04:26:23.644Z,1276.00
2023-05-14T04:27:23.629Z,1324.00
2023-05-14T04:28:23.595Z,1368.00
2023-05-14T04:29:23.590Z,1416.00
2023-05-14T04:30:23.829Z,1460.00
2023-05-14T04:31:23.629Z,1520.00
2023-05-14T04:32:23.585Z,1588.00
2023-05-14T04:33:23.545Z,1636.00
2023-05-14T04:34:23.524Z,1688.00
2023-05-14T04:35:25.035Z,1736.00
2023-05-14T04:36:23.495Z,1780.00
2023-05-14T04:37:23.488Z,1832.00
2023-05-14T04:38:23.467Z,1864.00
2023-05-14T04:39:23.468Z,1892.00
2023-05-14T04:40:23.598Z,1912.00
2023-05-14T04:41:23.439Z,1924.00
2023-05-14T04:42:23.427Z,1940.00
2023-05-14T04:43:23.412Z,1956.00
2023-05-14T04:44:23.401Z,1988.00
2023-05-14T04:45:23.403Z,2032.00
2023-05-14T04:46:23.427Z,2072.00
2023-05-14T04:47:23.379Z,2100.00
2023-05-14T04:48:23.352Z,2092.00
2023-05-14T04:49:23.375Z,2040.00
2023-05-14T04:50:23.478Z,1996.00
2023-05-14T04:51:23.300Z,1972.00
2023-05-14T04:52:23.288Z,1956.00
2023-05-14T04:53:23.283Z,1932.00
2023-05-14T04:54:23.290Z,1988.00
2023-05-14T04:55:23.258Z,2036.00
2023-05-14T04:56:23.234Z,2060.00
2023-05-14T04:57:23.245Z,2112.00
2023-05-14T04:58:23.217Z,2124.00
2023-05-14T04:59:23.223Z,2092.00
2023-05-14T05:00:23.480Z,1996.00
2023-05-14T05:01:23.199Z,1876.00
2023-05-14T05:02:23.163Z,1760.00
2023-05-14T05:03:23.228Z,1668.00
2023-05-14T05:04:23.138Z,1640.00
2023-05-14T05:05:23.130Z,1652.00
2023-05-14T05:06:23.109Z,1688.00
2023-05-14T05:07:23.101Z,1736.00
2023-05-14T05:08:23.096Z,1788.00
2023-05-14T05:09:23.075Z,1892.00
2023-05-14T05:10:23.357Z,1976.00
2023-05-14T05:11:23.051Z,2060.00
2023-05-14T05:12:23.052Z,2104.00
2023-05-14T05:13:23.048Z,2316.00
2023-05-14T05:14:23.011Z,2492.00
2023-05-14T05:15:24.713Z,2548.00
2023-05-14T05:16:23.099Z,2548.00
2023-05-14T05:17:23.021Z,2532.00
2023-05-14T05:18:22.978Z,2588.00
2023-05-14T05:19:35.815Z,2452.00
2023-05-14T05:20:24.063Z,2496.00
2023-05-14T05:21:22.917Z,2728.00
2023-05-14T05:22:22.922Z,2640.00
2023-05-14T05:23:22.893Z,2636.00
2023-05-14T05:24:22.877Z,2812.00
2023-05-14T05:25:22.868Z,3036.00
2023-05-14T05:26:22.857Z,3196.00
2023-05-14T05:27:22.861Z,3164.00
2023-05-14T05:28:22.823Z,3484.00
2023-05-14T05:29:22.810Z,3540.00
2023-05-14T05:30:23.056Z,3584.00
2023-05-14T05:31:22.894Z,3628.00
2023-05-14T05:32:22.830Z,3660.00
2023-05-14T05:33:22.762Z,3688.00
2023-05-14T05:34:22.747Z,3712.00
2023-05-14T05:35:22.732Z,3752.00
2023-05-14T05:36:22.731Z,3796.00
2023-05-14T05:37:22.729Z,3836.00
2023-05-14T05:38:22.693Z,3868.00
2023-05-14T05:39:22.678Z,3892.00
2023-05-14T05:40:22.849Z,3924.00
2023-05-14T05:41:22.675Z,3952.00
2023-05-14T05:42:22.692Z,3968.00
2023-05-14T05:43:22.628Z,3980.00
2023-05-14T05:44:22.626Z,4004.00
2023-05-14T05:45:22.663Z,4012.00
2023-05-14T05:46:22.669Z,4020.00
2023-05-14T05:47:22.627Z,4028.00
2023-05-14T05:48:22.587Z,4044.00
2023-05-14T05:49:22.551Z,4072.00
2023-05-14T05:50:22.873Z,4084.00
2023-05-14T05:51:22.522Z,4100.00
2023-05-14T05:52:22.505Z,4132.00
2023-05-14T05:53:22.519Z,4164.00
2023-05-14T05:54:22.486Z,4184.00
2023-05-14T05:55:22.484Z,4228.00
2023-05-14T05:56:22.446Z,4260.00
2023-05-14T05:57:23.207Z,4304.00
2023-05-14T05:58:22.428Z,4320.00
2023-05-14T05:59:22.444Z,4332.00
2023-05-14T06:00:22.727Z,4272.00
2023-05-14T06:01:22.412Z,4280.00
2023-05-14T06:02:22.473Z,4280.00
2023-05-14T06:03:22.414Z,4304.00
2023-05-14T06:04:22.479Z,4296.00
2023-05-14T06:05:22.390Z,4272.00
2023-05-14T06:06:22.334Z,4292.00
2023-05-14T06:07:22.318Z,4248.00
2023-05-14T06:08:22.431Z,4268.00
2023-05-14T06:09:22.405Z,4292.00
2023-05-14T06:10:22.623Z,4260.00
2023-05-14T06:11:22.523Z,4268.00
2023-05-14T06:12:22.259Z,4276.00
2023-05-14T06:13:22.252Z,4300.00
2023-05-14T06:14:22.245Z,4308.00
2023-05-14T06:15:22.226Z,4308.00
2023-05-14T06:16:22.241Z,4332.00
2023-05-14T06:17:22.265Z,4428.00
2023-05-14T06:18:22.196Z,4432.00
2023-05-14T06:19:22.467Z,4412.00
2023-05-14T06:20:22.372Z,4464.00
2023-05-14T06:21:22.197Z,4484.00
2023-05-14T06:22:22.137Z,4484.00
2023-05-14T06:23:22.154Z,4472.00
2023-05-14T06:24:22.101Z,4444.00
2023-05-14T06:25:22.197Z,4468.00
2023-05-14T06:26:22.076Z,4480.00
2023-05-14T06:27:22.095Z,4476.00
2023-05-14T06:28:22.057Z,4420.00
2023-05-14T06:29:22.033Z,4328.00
2023-05-14T06:30:22.210Z,4392.00
2023-05-14T06:31:22.050Z,4480.00
2023-05-14T06:32:22.081Z,4560.00
2023-05-14T06:33:21.980Z,4584.00
2023-05-14T06:34:21.965Z,4592.00
2023-05-14T06:35:21.942Z,4600.00
2023-05-14T06:36:21.936Z,4616.00
2023-05-14T06:37:21.948Z,4604.00
2023-05-14T06:38:21.912Z,4628.00
2023-05-14T06:39:21.901Z,4632.00
2023-05-14T06:40:22.214Z,4636.00
2023-05-14T06:41:21.892Z,4648.00
2023-05-14T06:42:21.870Z,4652.00
2023-05-14T06:43:21.845Z,4672.00
2023-05-14T06:44:21.830Z,4676.00
2023-05-14T06:45:21.815Z,4688.00
2023-05-14T06:46:21.834Z,4692.00
2023-05-14T06:47:21.813Z,4692.00
2023-05-14T06:48:21.866Z,4720.00
2023-05-14T06:49:21.774Z,4696.00
2023-05-14T06:50:21.974Z,4740.00
2023-05-14T06:51:21.788Z,4756.00
2023-05-14T06:52:21.730Z,4760.00
2023-05-14T06:53:21.718Z,4772.00
2023-05-14T06:54:21.737Z,4780.00
2023-05-14T06:55:21.698Z,4788.00
2023-05-14T06:56:21.694Z,4788.00
2023-05-14T06:57:21.667Z,4804.00
2023-05-14T06:58:21.650Z,4796.00
2023-05-14T06:59:21.655Z,4828.00
2023-05-14T07:00:21.986Z,4820.00
2023-05-14T07:01:21.677Z,4848.00
2023-05-14T07:02:21.658Z,4860.00
2023-05-14T07:03:21.582Z,4880.00
2023-05-14T07:04:21.649Z,4876.00
2023-05-14T07:05:21.571Z,4888.00
2023-05-14T07:06:21.546Z,4900.00
2023-05-14T07:07:21.538Z,4904.00
2023-05-14T07:08:21.540Z,4932.00
2023-05-14T07:09:21.504Z,4936.00
2023-05-14T07:10:21.609Z,4952.00
2023-05-14T07:11:21.478Z,4928.00
2023-05-14T07:12:21.472Z,4996.00
2023-05-14T07:13:21.449Z,4976.00
2023-05-14T07:14:21.445Z,5012.00
2023-05-14T07:15:21.457Z,5048.00
2023-05-14T07:16:21.413Z,5064.00
2023-05-14T07:17:21.465Z,5092.00
2023-05-14T07:18:21.379Z,5072.00
2023-05-14T07:19:21.383Z,5064.00
2023-05-14T07:20:21.424Z,5092.00
2023-05-14T07:21:21.349Z,5112.00
2023-05-14T07:22:21.339Z,5124.00
2023-05-14T07:23:21.324Z,5156.00
2023-05-14T07:24:21.326Z,5160.00
2023-05-14T07:25:21.318Z,5192.00
2023-05-14T07:26:21.282Z,5208.00
2023-05-14T07:27:21.285Z,5236.00
2023-05-14T07:28:21.252Z,5244.00
2023-05-14T07:29:21.260Z,5276.00
2023-05-14T07:30:21.390Z,5264.00
2023-05-14T07:31:21.298Z,5304.00
2023-05-14T07:32:21.198Z,5340.00
2023-05-14T07:33:21.208Z,5344.00
2023-05-14T07:34:21.207Z,5324.00
2023-05-14T07:35:21.169Z,5324.00
2023-05-14T07:36:21.158Z,5352.00
2023-05-14T07:37:23.666Z,5348.00
2023-05-14T07:38:21.142Z,5316.00
2023-05-14T07:39:21.119Z,5304.00
2023-05-14T07:40:21.197Z,5284.00
2023-05-14T07:41:21.093Z,5208.00
2023-05-14T07:42:34.521Z,5292.00
2023-05-14T07:43:22.071Z,5316.00
2023-05-14T07:44:21.047Z,5316.00
2023-05-14T07:45:21.031Z,5328.00
2023-05-14T07:46:21.027Z,5316.00
2023-05-14T07:47:21.070Z,5316.00
2023-05-14T07:48:21.051Z,5324.00
2023-05-14T07:49:21.006Z,5336.00
2023-05-14T07:50:21.006Z,5340.00
2023-05-14T07:51:20.956Z,5344.00
2023-05-14T07:52:21.056Z,5344.00
2023-05-14T07:53:20.934Z,5340.00
2023-05-14T07:54:20.915Z,5360.00
2023-05-14T07:55:20.908Z,5380.00
2023-05-14T07:56:20.901Z,5372.00
2023-05-14T07:57:20.893Z,5396.00
2023-05-14T07:58:20.859Z,5376.00
2023-05-14T07:59:20.855Z,5396.00
2023-05-14T08:00:20.937Z,5400.00
2023-05-14T08:01:20.859Z,5412.00
2023-05-14T08:02:20.948Z,5424.00
2023-05-14T08:03:20.918Z,5444.00
2023-05-14T08:04:20.890Z,5456.00
2023-05-14T08:05:20.788Z,5460.00
2023-05-14T08:06:20.781Z,5484.00
2023-05-14T08:07:20.757Z,5504.00
2023-05-14T08:08:20.740Z,5516.00
2023-05-14T08:09:20.721Z,5524.00
2023-05-14T08:10:20.777Z,5536.00
2023-05-14T08:11:20.750Z,5552.00
2023-05-14T08:12:20.689Z,5484.00
2023-05-14T08:13:20.676Z,5448.00
2023-05-14T08:14:20.675Z,5620.00
2023-05-14T08:15:20.670Z,5620.00
2023-05-14T08:16:20.665Z,5628.00
2023-05-14T08:17:20.645Z,5648.00
2023-05-14T08:18:20.610Z,5676.00
2023-05-14T08:19:20.645Z,5688.00
2023-05-14T08:20:20.593Z,5708.00
2023-05-14T08:21:20.571Z,5720.00
2023-05-14T08:22:20.581Z,5744.00
2023-05-14T08:23:20.558Z,5764.00
2023-05-14T08:24:20.524Z,5776.00
2023-05-14T08:25:20.533Z,5800.00
2023-05-14T08:26:20.507Z,5812.00
2023-05-14T08:27:20.500Z,5800.00
2023-05-14T08:28:20.475Z,5812.00
2023-05-14T08:29:20.482Z,5808.00
2023-05-14T08:30:20.474Z,5812.00
2023-05-14T08:31:20.506Z,5812.00
2023-05-14T08:32:23.805Z,5840.00
2023-05-14T08:33:20.417Z,5832.00
2023-05-14T08:34:20.413Z,5848.00
2023-05-14T08:35:20.391Z,5840.00
2023-05-14T08:36:20.377Z,5888.00
2023-05-14T08:37:20.362Z,5912.00
2023-05-14T08:38:20.352Z,5960.00
2023-05-14T08:39:20.361Z,6020.00
2023-05-14T08:40:20.335Z,6072.00
2023-05-14T08:41:20.338Z,6084.00
2023-05-14T08:42:20.316Z,6112.00
2023-05-14T08:43:20.337Z,6140.00
2023-05-14T08:44:20.315Z,6168.00
2023-05-14T08:45:20.280Z,6180.00
2023-05-14T08:46:20.253Z,6212.00
2023-05-14T08:47:20.240Z,6232.00
2023-05-14T08:48:20.337Z,6252.00
2023-05-14T08:49:20.221Z,6284.00
2023-05-14T08:50:27.716Z,6292.00
2023-05-14T08:51:20.198Z,6224.00
2023-05-14T08:52:20.193Z,6188.00
2023-05-14T08:53:20.307Z,6144.00
2023-05-14T08:54:20.142Z,6120.00
2023-05-14T08:55:20.149Z,6044.00
2023-05-14T08:56:20.122Z,6008.00
2023-05-14T08:57:20.168Z,5852.00
2023-05-14T08:58:20.119Z,5772.00
2023-05-14T08:59:20.085Z,5708.00
2023-05-14T09:00:20.077Z,5696.00
2023-05-14T09:01:20.132Z,5728.00
2023-05-14T09:02:20.062Z,5888.00
2023-05-14T09:03:20.061Z,6048.00
2023-05-14T09:04:20.073Z,6364.00
2023-05-14T09:05:20.008Z,6576.00
2023-05-14T09:06:19.987Z,6764.00
2023-05-14T09:07:19.993Z,6888.00
2023-05-14T09:08:19.970Z,7004.00
2023-05-14T09:09:19.957Z,6936.00
2023-05-14T09:10:19.934Z,6912.00
2023-05-14T09:11:19.936Z,6920.00
2023-05-14T09:12:19.925Z,6920.00
2023-05-14T09:13:19.914Z,6868.00
2023-05-14T09:14:19.895Z,6804.00
2023-05-14T09:15:19.897Z,6900.00
2023-05-14T09:16:19.937Z,6940.00
2023-05-14T09:17:19.860Z,6948.00
2023-05-14T09:18:19.835Z,6964.00
2023-05-14T09:19:19.925Z,6836.00
2023-05-14T09:20:19.802Z,6844.00
2023-05-14T09:21:19.863Z,6832.00
2023-05-14T09:22:19.795Z,6976.00
2023-05-14T09:23:19.765Z,7052.00
2023-05-14T09:24:19.753Z,7072.00
2023-05-14T09:25:19.742Z,7136.00
2023-05-14T09:26:19.739Z,7136.00
2023-05-14T09:27:19.717Z,7172.00
2023-05-14T09:28:19.699Z,7164.00
2023-05-14T09:29:19.689Z,7176.00
2023-05-14T09:30:19.693Z,7160.00
2023-05-14T09:31:19.722Z,7188.00
2023-05-14T09:32:19.649Z,7216.00
2023-05-14T09:33:19.638Z,7216.00
2023-05-14T09:34:19.629Z,7208.00
2023-05-14T09:35:19.627Z,7212.00
2023-05-14T09:36:19.593Z,7204.00
2023-05-14T09:37:19.584Z,7196.00
2023-05-14T09:38:19.576Z,7160.00
2023-05-14T09:39:19.578Z,7188.00
2023-05-14T09:40:19.562Z,7184.00
2023-05-14T09:41:19.535Z,7192.00
2023-05-14T09:42:19.520Z,7220.00
2023-05-14T09:43:19.509Z,7260.00
2023-05-14T09:44:19.515Z,7288.00
2023-05-14T09:45:19.505Z,7020.00
2023-05-14T09:46:19.464Z,6588.00
2023-05-14T09:47:19.479Z,6732.00
2023-05-14T09:48:19.439Z,6892.00
2023-05-14T09:49:19.444Z,7140.00
2023-05-14T09:50:19.419Z,7468.00
2023-05-14T09:51:19.402Z,7712.00
2023-05-14T09:52:19.419Z,7884.00
2023-05-14T09:53:19.390Z,7960.00
2023-05-14T09:54:19.380Z,7988.00
2023-05-14T09:55:19.352Z,7964.00
2023-05-14T09:56:19.342Z,7916.00
2023-05-14T09:57:19.330Z,7896.00
2023-05-14T09:58:19.309Z,7880.00
2023-05-14T09:59:19.314Z,7872.00
2023-05-14T10:00:19.301Z,7872.00
2023-05-14T10:01:19.315Z,7880.00
2023-05-14T10:02:19.253Z,7908.00
2023-05-14T10:03:20.010Z,7940.00
2023-05-14T10:04:19.265Z,7960.00
2023-05-14T10:05:19.228Z,8008.00
2023-05-14T10:06:19.219Z,8044.00
2023-05-14T10:07:19.196Z,8088.00
2023-05-14T10:08:19.190Z,8124.00
2023-05-14T10:09:19.183Z,8132.00
2023-05-14T10:10:19.152Z,8116.00
2023-05-14T10:11:19.145Z,8092.00
2023-05-14T10:12:19.125Z,8060.00
2023-05-14T10:13:19.134Z,8008.00
2023-05-14T10:14:19.110Z,7992.00
2023-05-14T10:15:19.089Z,7964.00
2023-05-14T10:16:19.097Z,7928.00
2023-05-14T10:17:19.129Z,7904.00
2023-05-14T10:18:19.142Z,7892.00
2023-05-14T10:19:19.096Z,7876.00
2023-05-14T10:20:19.053Z,7892.00
2023-05-14T10:21:19.008Z,7900.00
2023-05-14T10:22:19.024Z,7916.00
2023-05-14T10:23:18.998Z,7920.00
2023-05-14T10:24:18.984Z,7916.00
2023-05-14T10:25:18.958Z,7924.00
2023-05-14T10:26:18.961Z,7940.00
2023-05-14T10:27:18.944Z,7980.00
2023-05-14T10:28:18.918Z,8032.00
2023-05-14T10:29:18.914Z,8028.00
2023-05-14T10:30:18.953Z,8024.00
2023-05-14T10:31:18.893Z,8040.00
2023-05-14T10:32:18.885Z,8000.00
2023-05-14T10:33:18.975Z,8012.00
2023-05-14T10:34:18.855Z,8068.00
2023-05-14T10:35:18.834Z,8276.00
2023-05-14T10:36:18.873Z,8232.00
2023-05-14T10:37:18.819Z,8128.00
2023-05-14T10:38:18.808Z,8112.00
2023-05-14T10:39:18.780Z,8116.00
2023-05-14T10:40:18.864Z,8112.00
2023-05-14T10:41:18.763Z,8120.00
2023-05-14T10:42:18.760Z,8120.00
2023-05-14T10:43:18.726Z,8124.00
2023-05-14T10:44:18.721Z,8164.00
2023-05-14T10:45:18.710Z,8188.00
2023-05-14T10:46:18.716Z,8184.00
2023-05-14T10:47:18.677Z,8208.00
2023-05-14T10:48:18.711Z,8268.00
2023-05-14T10:49:28.258Z,8320.00
2023-05-14T10:50:19.702Z,8380.00
2023-05-14T10:51:18.710Z,8444.00
2023-05-14T10:52:18.633Z,8516.00
2023-05-14T10:53:18.596Z,8604.00
2023-05-14T10:54:18.611Z,8580.00
2023-05-14T10:55:18.586Z,8588.00
2023-05-14T10:56:18.564Z,8592.00
2023-05-14T10:57:18.542Z,8532.00
2023-05-14T10:58:18.536Z,8540.00
2023-05-14T10:59:18.531Z,8596.00
2023-05-14T11:00:18.562Z,8624.00
2023-05-14T11:01:18.507Z,8608.00
2023-05-14T11:02:18.489Z,8632.00
2023-05-14T11:03:18.482Z,8688.00
2023-05-14T11:04:18.532Z,8756.00
2023-05-14T11:05:18.460Z,8812.00
2023-05-14T11:06:18.440Z,8852.00
2023-05-14T11:07:18.425Z,8964.00
2023-05-14T11:08:18.429Z,9072.00
2023-05-14T11:09:18.411Z,9148.00
2023-05-14T11:10:18.504Z,9248.00
2023-05-14T11:11:18.375Z,9388.00
2023-05-14T11:12:18.383Z,9552.00
2023-05-14T11:13:18.349Z,9804.00
2023-05-14T11:14:18.352Z,9936.00
2023-05-14T11:15:18.342Z,10004.00
2023-05-14T11:17:18.359Z,10320.00
2023-05-14T11:18:18.293Z,10528.00
2023-05-14T11:19:18.393Z,10612.00
2023-05-14T11:20:18.296Z,10760.00
2023-05-14T11:21:18.298Z,10780.00
2023-05-14T11:22:18.242Z,10760.00
2023-05-14T11:23:18.233Z,10876.00
2023-05-14T11:24:18.230Z,11032.00
2023-05-14T11:25:18.201Z,11012.00
2023-05-14T11:26:20.785Z,11084.00
2023-05-14T11:27:18.169Z,11088.00
2023-05-14T11:28:18.179Z,11108.00
2023-05-14T11:29:18.157Z,11036.00
2023-05-14T11:30:18.299Z,10880.00
2023-05-14T11:31:18.163Z,10996.00
2023-05-14T11:32:18.119Z,11072.00
2023-05-14T11:33:18.120Z,11200.00
2023-05-14T11:34:18.092Z,11216.00
2023-05-14T11:35:18.125Z,11364.00
2023-05-14T11:36:18.081Z,11524.00
2023-05-14T11:37:18.041Z,10196.00
2023-05-14T11:38:18.047Z,10480.00
2023-05-14T11:39:18.027Z,10632.00
2023-05-14T11:40:18.074Z,11588.00
2023-05-14T11:41:17.998Z,12324.00
2023-05-14T11:42:17.998Z,12620.00
2023-05-14T11:43:17.996Z,13004.00
2023-05-14T11:44:17.974Z,13028.00
2023-05-14T11:45:17.961Z,13024.00
2023-05-14T11:46:18.074Z,13208.00
2023-05-14T11:47:17.925Z,11900.00
2023-05-14T11:48:17.909Z,12612.00
2023-05-14T11:49:17.892Z,13708.00
2023-05-14T11:50:17.884Z,14140.00
2023-05-14T11:51:17.885Z,14200.00
2023-05-14T11:52:17.868Z,14224.00
2023-05-14T11:53:17.839Z,14024.00
2023-05-14T11:54:17.831Z,13780.00
2023-05-14T11:55:17.824Z,13704.00
2023-05-14T11:56:17.834Z,13728.00
2023-05-14T11:57:17.833Z,13340.00
2023-05-14T11:58:17.772Z,13436.00
2023-05-14T11:59:17.768Z,13676.00
2023-05-14T12:00:17.752Z,13680.00
2023-05-14T12:01:17.836Z,13448.00
2023-05-14T12:02:17.871Z,13448.00
2023-05-14T12:03:17.861Z,13308.00
2023-05-14T12:04:17.746Z,13136.00
2023-05-14T12:05:17.689Z,12804.00
2023-05-14T12:06:17.681Z,11836.00
2023-05-14T12:07:17.669Z,12172.00
2023-05-14T12:08:17.670Z,13884.00
2023-05-14T12:09:17.638Z,14272.00
2023-05-14T12:10:17.628Z,14336.00
2023-05-14T12:11:17.633Z,14156.00
2023-05-14T12:12:17.602Z,13972.00
2023-05-14T12:13:17.602Z,13956.00
2023-05-14T12:14:17.568Z,13964.00
2023-05-14T12:15:17.581Z,13696.00
2023-05-14T12:16:17.634Z,13232.00
2023-05-14T12:17:17.543Z,13252.00
2023-05-14T12:18:24.555Z,13312.00
2023-05-14T12:19:18.556Z,13616.00
2023-05-14T12:20:17.513Z,13544.00
2023-05-14T12:21:17.488Z,12028.00
2023-05-14T12:22:17.465Z,11896.00
2023-05-14T12:23:17.466Z,13028.00
2023-05-14T12:24:17.446Z,13264.00
2023-05-14T12:25:17.518Z,13524.00
2023-05-14T12:26:17.433Z,13564.00
2023-05-14T12:27:17.409Z,13908.00
2023-05-14T12:28:17.402Z,14216.00
2023-05-14T12:29:17.411Z,14336.00
2023-05-14T12:30:21.610Z,14544.00
2023-05-14T12:31:17.401Z,14568.00
2023-05-14T12:32:17.350Z,14656.00
2023-05-14T12:33:17.344Z,14752.00
2023-05-14T12:34:17.339Z,14912.00
2023-05-14T12:35:17.309Z,14976.00
2023-05-14T12:36:21.726Z,15040.00
2023-05-14T12:37:18.292Z,15200.00
2023-05-14T12:38:17.273Z,15232.00
2023-05-14T12:39:17.277Z,15360.00
2023-05-14T12:40:17.272Z,15648.00
2023-05-14T12:41:17.241Z,15840.00
2023-05-14T12:42:17.224Z,16224.00
2023-05-14T12:43:17.224Z,16416.00
2023-05-14T12:44:17.219Z,16352.00
2023-05-14T12:45:17.184Z,16128.00
2023-05-14T12:46:17.332Z,16160.00
2023-05-14T12:47:17.243Z,16128.00
2023-05-14T12:48:17.154Z,16032.00
2023-05-14T12:49:17.133Z,15872.00
2023-05-14T12:50:17.120Z,14660.00
2023-05-14T12:51:17.111Z,14472.00
2023-05-14T12:52:33.023Z,15776.00
2023-05-14T12:53:18.111Z,16032.00
2023-05-14T12:54:17.072Z,16576.00
2023-05-14T12:55:17.158Z,16864.00
2023-05-14T12:56:17.041Z,17152.00
2023-05-14T12:57:17.047Z,17248.00
2023-05-14T12:58:17.022Z,17280.00
2023-05-14T12:59:17.016Z,17440.00
2023-05-14T13:00:17.020Z,17440.00
2023-05-14T13:01:17.021Z,17600.00
2023-05-14T13:02:17.513Z,17728.00
2023-05-14T13:03:17.014Z,17504.00
2023-05-14T13:04:17.014Z,17376.00
2023-05-14T13:05:16.950Z,17376.00
2023-05-14T13:06:16.920Z,17120.00
2023-05-14T13:07:16.920Z,16864.00
2023-05-14T13:08:16.903Z,15080.00
2023-05-14T13:09:16.876Z,14796.00
2023-05-14T13:10:16.869Z,14260.00
2023-05-14T13:11:16.858Z,14528.00
2023-05-14T13:12:16.854Z,14940.00
2023-05-14T13:13:16.830Z,14060.00
2023-05-14T13:14:18.327Z,13916.00
2023-05-14T13:15:16.820Z,13536.00
2023-05-14T13:16:17.002Z,15168.00
2023-05-14T13:17:16.816Z,15008.00
2023-05-14T13:18:16.768Z,14720.00
2023-05-14T13:19:16.783Z,14528.00
2023-05-14T13:20:16.733Z,14688.00
2023-05-14T13:21:16.745Z,14880.00
2023-05-14T13:22:16.719Z,15136.00
2023-05-14T13:23:16.701Z,15264.00
2023-05-14T13:24:16.690Z,15648.00
2023-05-14T13:25:16.697Z,15808.00
2023-05-14T13:26:16.679Z,16288.00
2023-05-14T13:27:16.667Z,16160.00
2023-05-14T13:28:16.637Z,16064.00
2023-05-14T13:29:16.635Z,16000.00
2023-05-14T13:30:16.622Z,15936.00
2023-05-14T13:31:16.665Z,15968.00
2023-05-14T13:32:16.585Z,16032.00
2023-05-14T13:33:16.570Z,16096.00
2023-05-14T13:34:16.570Z,16224.00
2023-05-14T13:35:16.573Z,15648.00
2023-05-14T13:36:16.546Z,15744.00
2023-05-14T13:37:16.532Z,15776.00
2023-05-14T13:38:16.531Z,15776.00
2023-05-14T13:39:16.518Z,15776.00
2023-05-14T13:40:16.498Z,15648.00
2023-05-14T13:41:16.491Z,15136.00
2023-05-14T13:42:16.465Z,15232.00
2023-05-14T13:43:16.451Z,14944.00
2023-05-14T13:44:16.456Z,14912.00
2023-05-14T13:45:16.436Z,15424.00
2023-05-14T13:46:16.471Z,15776.00
2023-05-14T13:47:16.408Z,15712.00
2023-05-14T13:48:16.427Z,15616.00
2023-05-14T13:49:16.391Z,15488.00
2023-05-14T13:50:16.372Z,15168.00
2023-05-14T13:51:16.367Z,14816.00
2023-05-14T13:52:16.354Z,14332.00
2023-05-14T13:53:16.335Z,14456.00
2023-05-14T13:54:16.322Z,13808.00
2023-05-14T13:55:16.304Z,13516.00
2023-05-14T13:56:16.294Z,13712.00
2023-05-14T13:57:16.279Z,14080.00
2023-05-14T13:58:16.286Z,13980.00
2023-05-14T13:59:16.263Z,13728.00
2023-05-14T14:00:16.258Z,14012.00
2023-05-14T14:01:16.263Z,14044.00
2023-05-14T14:02:16.230Z,13904.00
2023-05-14T14:03:16.218Z,14220.00
2023-05-14T14:04:16.186Z,13520.00
2023-05-14T14:05:16.209Z,14776.00
2023-05-14T14:06:16.161Z,15648.00
2023-05-14T14:07:16.152Z,13600.00
2023-05-14T14:08:23.340Z,16512.00
2023-05-14T14:09:17.133Z,16352.00
2023-05-14T14:10:16.113Z,17888.00
2023-05-14T14:11:16.112Z,17696.00
2023-05-14T14:12:16.122Z,16896.00
2023-05-14T14:13:16.143Z,17216.00
2023-05-14T14:14:16.060Z,17216.00
2023-05-14T14:15:16.055Z,17184.00
2023-05-14T14:16:16.071Z,16960.00
2023-05-14T14:17:16.044Z,16832.00
2023-05-14T14:18:16.017Z,16672.00
2023-05-14T14:19:17.075Z,15232.00
2023-05-14T14:20:15.983Z,18464.00
2023-05-14T14:21:15.984Z,14788.00
2023-05-14T14:22:15.974Z,12676.00
2023-05-14T14:23:15.976Z,11540.00
2023-05-14T14:24:15.930Z,10616.00
2023-05-14T14:25:15.934Z,9996.00
2023-05-14T14:26:16.042Z,9496.00
2023-05-14T14:27:15.896Z,8888.00
2023-05-14T14:28:15.915Z,8272.00
2023-05-14T14:29:15.876Z,7780.00
2023-05-14T14:30:15.893Z,7324.00
2023-05-14T14:31:15.882Z,7008.00
2023-05-14T14:32:15.832Z,6548.00
2023-05-14T14:33:15.866Z,6116.00
2023-05-14T14:34:15.819Z,5744.00
2023-05-14T14:35:15.806Z,5440.00
2023-05-14T14:36:15.796Z,5124.00
2023-05-14T14:37:15.793Z,4900.00
2023-05-14T14:38:15.767Z,4696.00
2023-05-14T14:39:15.765Z,4524.00
2023-05-14T14:40:15.748Z,4396.00
2023-05-14T14:41:15.730Z,4328.00
2023-05-14T14:42:15.713Z,4304.00
2023-05-14T14:43:15.694Z,4320.00
2023-05-14T14:44:15.693Z,4356.00
2023-05-14T14:45:15.684Z,4404.00
2023-05-14T14:46:15.695Z,4448.00
2023-05-14T14:47:15.660Z,4536.00
2023-05-14T14:48:15.641Z,4660.00
2023-05-14T14:49:15.641Z,4748.00
2023-05-14T14:50:22.681Z,4796.00
2023-05-14T14:51:15.589Z,4824.00
2023-05-14T14:52:15.595Z,4804.00
2023-05-14T14:53:15.560Z,4772.00
2023-05-14T14:54:15.571Z,4764.00
2023-05-14T14:55:16.287Z,4756.00
2023-05-14T14:56:15.542Z,4744.00
2023-05-14T14:57:15.531Z,4716.00
2023-05-14T14:58:15.577Z,4676.00
2023-05-14T14:59:15.506Z,4668.00
2023-05-14T15:00:15.487Z,4688.00
2023-05-14T15:01:15.515Z,4724.00
2023-05-14T15:02:15.495Z,4776.00
2023-05-14T15:03:15.561Z,4852.00
2023-05-14T15:04:15.445Z,4952.00
2023-05-14T15:05:15.424Z,5056.00
2023-05-14T15:06:15.406Z,5152.00
2023-05-14T15:07:15.396Z,5248.00
2023-05-14T15:08:15.427Z,5340.00
2023-05-14T15:09:15.364Z,5428.00
2023-05-14T15:10:15.356Z,5500.00
2023-05-14T15:11:15.341Z,5572.00
2023-05-14T15:12:15.341Z,5640.00
2023-05-14T15:13:15.367Z,5728.00
2023-05-14T15:14:15.320Z,5852.00
2023-05-14T15:15:15.292Z,6028.00
2023-05-14T15:16:15.314Z,6208.00
2023-05-14T15:17:15.267Z,6400.00
2023-05-14T15:18:15.275Z,6664.00
2023-05-14T15:19:15.299Z,7004.00
2023-05-14T15:20:15.234Z,7592.00
2023-05-14T15:21:15.224Z,9232.00
2023-05-14T15:22:15.215Z,9224.00
2023-05-14T15:23:15.203Z,9284.00
2023-05-14T15:24:15.180Z,12112.00
2023-05-14T15:25:15.170Z,11676.00
2023-05-14T15:26:15.151Z,12832.00
2023-05-14T15:27:15.155Z,13276.00
2023-05-14T15:28:15.123Z,15040.00
2023-05-14T15:29:15.106Z,15040.00
2023-05-14T15:30:15.121Z,16704.00
2023-05-14T15:31:15.126Z,18240.00
2023-05-14T15:32:15.088Z,18720.00
2023-05-14T15:33:15.052Z,19072.00
2023-05-14T15:34:15.070Z,20128.00
2023-05-14T15:35:15.043Z,20832.00
2023-05-14T15:36:15.212Z,20032.00
2023-05-14T15:37:15.024Z,19232.00
2023-05-14T15:38:15.037Z,18144.00
2023-05-14T15:39:14.981Z,19232.00
2023-05-14T15:40:14.973Z,18688.00
2023-05-14T15:41:14.960Z,18848.00
2023-05-14T15:42:14.954Z,19584.00
2023-05-14T15:43:14.926Z,18752.00
2023-05-14T15:44:14.920Z,18368.00
2023-05-14T15:45:14.915Z,18016.00
2023-05-14T15:46:14.970Z,18688.00
2023-05-14T15:47:14.876Z,17056.00
2023-05-14T15:48:14.904Z,17440.00
2023-05-14T15:49:14.854Z,20416.00
2023-05-14T15:50:14.864Z,21088.00
2023-05-14T15:51:14.865Z,19392.00
2023-05-14T15:52:14.820Z,19680.00
2023-05-14T15:53:14.800Z,19168.00
2023-05-14T15:54:14.790Z,17824.00
2023-05-14T15:55:14.799Z,17536.00
2023-05-14T15:56:14.781Z,18048.00
2023-05-14T15:57:14.752Z,16256.00
2023-05-14T15:58:14.743Z,16672.00
2023-05-14T15:59:14.762Z,17376.00
2023-05-14T16:00:14.728Z,15552.00
2023-05-14T16:01:14.771Z,14304.00
2023-05-14T16:02:14.708Z,14400.00
2023-05-14T16:03:14.786Z,15808.00
2023-05-14T16:04:14.670Z,16544.00
2023-05-14T16:05:14.667Z,16224.00
2023-05-14T16:06:14.715Z,16928.00
2023-05-14T16:07:14.635Z,16480.00
2023-05-14T16:08:14.628Z,17056.00
2023-05-14T16:09:14.604Z,18720.00
2023-05-14T16:10:14.627Z,18496.00
2023-05-14T16:11:14.578Z,17440.00
2023-05-14T16:12:14.570Z,16032.00
2023-05-14T16:13:14.557Z,13184.00
2023-05-14T16:14:14.556Z,10528.00